createdAt,value
2023-05-23T00:01:31.674Z,57.44
2023-05-23T00:04:03.615Z,57.51
2023-05-23T00:06:32.597Z,57.24
2023-05-23T00:09:05.056Z,57.95
2023-05-23T00:13:12.995Z,58.05
2023-05-23T00:16:56.090Z,57.11
2023-05-23T00:19:23.518Z,54.73
2023-05-23T00:23:19.662Z,58.32
2023-05-23T00:25:53.582Z,58.88
2023-05-23T00:29:36.759Z,58.08
2023-05-23T00:33:22.462Z,56.15
2023-05-23T00:35:50.189Z,57.84
2023-05-23T00:38:18.877Z,55.39
2023-05-23T00:40:47.013Z,55.15
2023-05-23T00:44:30.148Z,58.03
2023-05-23T00:48:12.923Z,57.12
2023-05-23T00:51:56.119Z,58.29
2023-05-23T00:55:40.882Z,59.08
2023-05-23T00:58:11.610Z,59.02
2023-05-23T01:02:01.251Z,58.03
2023-05-23T01:05:44.445Z,57.69
2023-05-23T01:09:31.178Z,58.45
2023-05-23T01:12:49.033Z,59.97
2023-05-23T01:15:52.564Z,58.81
2023-05-23T01:19:15.730Z,59.30
2023-05-23T01:22:03.877Z,60.94
2023-05-23T01:24:58.859Z,60.06
2023-05-23T01:27:56.876Z,58.06
2023-05-23T01:30:31.380Z,59.69
2023-05-23T01:33:01.648Z,61.20
2023-05-23T01:35:32.273Z,59.87
2023-05-23T01:38:03.634Z,60.22
2023-05-23T01:40:33.968Z,59.26
2023-05-23T01:43:02.882Z,57.62
2023-05-23T01:45:32.089Z,57.55
2023-05-23T01:48:01.453Z,56.54
2023-05-23T01:50:30.455Z,58.23
2023-05-23T01:53:05.777Z,58.34
2023-05-23T01:55:35.822Z,57.86
2023-05-23T01:58:07.457Z,56.42
2023-05-23T02:00:36.273Z,58.02
2023-05-23T02:03:05.040Z,57.57
2023-05-23T02:05:37.042Z,56.03
2023-05-23T02:08:06.329Z,58.65
2023-05-23T02:10:35.802Z,58.47
2023-05-23T02:13:04.425Z,60.11
2023-05-23T02:15:32.825Z,59.45
2023-05-23T02:18:03.394Z,58.90
2023-05-23T02:20:32.309Z,59.71
2023-05-23T02:23:01.894Z,59.45
2023-05-23T02:25:31.565Z,60.09
2023-05-23T02:27:59.889Z,60.12
2023-05-23T02:30:33.416Z,60.57
2023-05-23T02:33:07.566Z,60.91
2023-05-23T02:35:35.968Z,59.98
2023-05-23T02:38:09.713Z,60.25
2023-05-23T02:40:40.078Z,60.63
2023-05-23T02:43:10.987Z,60.59
2023-05-23T02:45:42.672Z,60.85
2023-05-23T02:48:12.208Z,59.27
2023-05-23T02:50:39.973Z,58.12
2023-05-23T02:53:10.258Z,60.67
2023-05-23T02:55:38.761Z,60.17
2023-05-23T02:58:10.969Z,60.03
2023-05-23T03:00:39.436Z,60.07
2023-05-23T03:03:07.491Z,59.36
2023-05-23T03:05:35.176Z,58.70
2023-05-23T03:08:03.158Z,59.16
2023-05-23T03:10:31.809Z,59.21
2023-05-23T03:12:59.699Z,58.62
2023-05-23T03:15:28.034Z,59.28
2023-05-23T03:17:56.855Z,59.31
2023-05-23T03:20:24.741Z,59.26
2023-05-23T03:22:52.753Z,58.07
2023-05-23T03:25:21.043Z,56.90
2023-05-23T03:27:59.986Z,56.82
2023-05-23T03:30:35.296Z,57.70
2023-05-23T03:33:05.023Z,57.26
2023-05-23T03:35:33.190Z,56.81
2023-05-23T03:38:01.182Z,55.02
2023-05-23T03:40:30.230Z,55.34
2023-05-23T03:43:07.263Z,56.45
2023-05-23T03:45:37.429Z,55.49
2023-05-23T03:48:12.507Z,55.67
2023-05-23T03:50:41.548Z,56.31
2023-05-23T03:53:09.985Z,54.55
2023-05-23T03:55:40.546Z,56.07
2023-05-23T03:58:10.931Z,55.09
2023-05-23T04:00:43.090Z,54.06
2023-05-23T04:03:15.832Z,55.72
2023-05-23T04:05:44.278Z,54.96
2023-05-23T04:08:14.274Z,55.45
2023-05-23T04:10:42.583Z,54.34
2023-05-23T04:13:11.136Z,53.50
2023-05-23T04:15:40.034Z,55.37
2023-05-23T04:18:11.569Z,55.65
2023-05-23T04:20:39.300Z,55.51
2023-05-23T04:23:33.085Z,55.03
2023-05-23T04:26:01.152Z,53.38
2023-05-23T04:28:37.971Z,54.43
2023-05-23T04:31:06.067Z,54.78
2023-05-23T04:33:39.331Z,54.77
2023-05-23T04:36:10.045Z,54.58
2023-05-23T04:38:44.387Z,54.06
2023-05-23T04:41:17.731Z,53.67
2023-05-23T04:43:59.063Z,54.19
2023-05-23T04:46:42.710Z,54.00
2023-05-23T04:49:34.445Z,53.98
2023-05-23T04:52:07.221Z,53.16
2023-05-23T04:54:45.221Z,53.35
2023-05-23T04:57:13.590Z,52.48
2023-05-23T04:59:42.793Z,53.94
2023-05-23T05:02:11.616Z,53.06
2023-05-23T05:04:40.859Z,52.95
2023-05-23T05:07:09.621Z,53.01
2023-05-23T05:09:37.605Z,52.85
2023-05-23T05:12:05.935Z,52.57
2023-05-23T05:14:33.588Z,52.53
2023-05-23T05:17:02.877Z,52.57
2023-05-23T05:19:38.936Z,51.48
2023-05-23T05:22:08.366Z,51.16
2023-05-23T05:24:37.638Z,50.52
2023-05-23T05:27:06.438Z,49.28
2023-05-23T05:29:34.357Z,48.41
2023-05-23T05:32:09.293Z,47.67
2023-05-23T05:34:40.634Z,46.74
2023-05-23T05:37:08.518Z,47.41
2023-05-23T05:39:36.258Z,47.33
2023-05-23T05:42:07.844Z,47.34
2023-05-23T05:44:36.535Z,48.94
2023-05-23T05:47:05.193Z,48.97
2023-05-23T05:49:34.254Z,49.33
2023-05-23T05:52:03.915Z,49.03
2023-05-23T05:54:33.162Z,49.20
2023-05-23T05:57:01.422Z,49.18
2023-05-23T05:59:31.127Z,48.62
2023-05-23T06:02:00.783Z,47.71
2023-05-23T06:04:29.485Z,46.96
2023-05-23T06:07:01.935Z,46.48
2023-05-23T06:09:30.767Z,45.47
2023-05-23T06:11:58.276Z,44.54
2023-05-23T06:14:26.085Z,44.66
2023-05-23T06:16:54.038Z,44.98
2023-05-23T06:19:22.242Z,44.78
2023-05-23T06:21:56.789Z,44.48
2023-05-23T06:24:26.597Z,44.76
2023-05-23T06:26:54.504Z,44.89
2023-05-23T06:29:22.340Z,44.85
2023-05-23T06:31:50.062Z,44.57
2023-05-23T06:34:17.919Z,44.10
2023-05-23T06:36:48.914Z,44.25
2023-05-23T06:39:17.240Z,44.62
2023-05-23T06:41:44.764Z,44.39
2023-05-23T06:44:12.059Z,43.93
2023-05-23T06:46:51.120Z,44.18
2023-05-23T06:49:18.447Z,43.95
2023-05-23T06:51:46.663Z,44.21
2023-05-23T06:54:15.398Z,43.84
2023-05-23T06:56:42.925Z,44.21
2023-05-23T06:59:10.648Z,44.65
2023-05-23T07:01:38.233Z,44.39
2023-05-23T07:04:06.683Z,43.86
2023-05-23T07:06:36.627Z,44.92
2023-05-23T07:09:05.531Z,45.54
2023-05-23T07:11:33.253Z,45.67
2023-05-23T07:14:00.899Z,45.37
2023-05-23T07:16:37.606Z,45.62
2023-05-23T07:19:08.572Z,45.64
2023-05-23T07:21:49.111Z,45.71
2023-05-23T07:24:25.298Z,45.84
2023-05-23T07:26:55.638Z,46.16
2023-05-23T07:29:23.683Z,46.49
2023-05-23T07:31:54.270Z,46.13
2023-05-23T07:34:23.195Z,46.57
2023-05-23T07:36:54.761Z,46.54
2023-05-23T07:39:24.579Z,46.35
2023-05-23T07:41:53.588Z,46.08
2023-05-23T07:44:23.963Z,47.40
2023-05-23T07:46:52.927Z,47.77
2023-05-23T07:49:20.996Z,46.98
2023-05-23T07:51:48.375Z,45.95
2023-05-23T07:54:16.812Z,46.23
2023-05-23T07:56:45.260Z,45.48
2023-05-23T07:59:13.536Z,45.42
2023-05-23T08:01:42.358Z,45.15
2023-05-23T08:04:13.698Z,44.00
2023-05-23T08:07:00.953Z,43.76
2023-05-23T08:09:46.448Z,43.20
2023-05-23T08:12:17.102Z,43.07
2023-05-23T08:14:51.864Z,43.13
2023-05-23T08:17:33.010Z,42.33
2023-05-23T08:20:01.441Z,41.96
2023-05-23T08:22:30.964Z,41.63
2023-05-23T08:24:59.505Z,39.78
2023-05-23T08:27:30.391Z,38.83
2023-05-23T08:30:03.911Z,38.95
2023-05-23T08:32:31.615Z,38.72
2023-05-23T08:34:59.133Z,39.05
2023-05-23T08:37:26.861Z,39.02
2023-05-23T08:39:54.145Z,37.71
2023-05-23T08:42:36.401Z,38.06
2023-05-23T08:45:07.170Z,38.55
2023-05-23T08:47:38.726Z,38.57
2023-05-23T08:50:19.306Z,38.03
2023-05-23T08:52:56.034Z,38.50
2023-05-23T08:55:29.344Z,37.70
2023-05-23T08:58:00.313Z,38.50
2023-05-23T09:00:37.003Z,37.23
2023-05-23T09:03:05.441Z,37.05
2023-05-23T09:05:45.281Z,35.96
2023-05-23T09:08:13.256Z,35.08
2023-05-23T09:10:42.932Z,35.36
2023-05-23T09:13:12.705Z,35.28
2023-05-23T09:16:00.419Z,34.75
2023-05-23T09:18:42.500Z,34.37
2023-05-23T09:21:13.596Z,34.65
2023-05-23T09:23:51.098Z,34.90
2023-05-23T09:26:19.791Z,34.92
2023-05-23T09:28:47.128Z,34.13
2023-05-23T09:31:16.344Z,34.74
2023-05-23T09:33:50.228Z,33.84
2023-05-23T09:36:19.580Z,32.19
2023-05-23T09:38:49.045Z,30.61
2023-05-23T09:41:16.600Z,28.52
2023-05-23T09:43:55.110Z,27.63
2023-05-23T09:46:22.969Z,27.71
2023-05-23T09:48:53.057Z,26.77
2023-05-23T09:51:23.575Z,26.27
2023-05-23T09:53:57.048Z,26.81
2023-05-23T09:56:28.504Z,27.64
2023-05-23T09:58:59.024Z,28.75
2023-05-23T10:01:28.742Z,29.06
2023-05-23T10:04:00.027Z,28.85
2023-05-23T10:06:53.356Z,29.88
2023-05-23T10:09:25.795Z,30.47
2023-05-23T10:12:33.207Z,30.03
2023-05-23T10:15:06.960Z,31.44
2023-05-23T10:18:01.278Z,32.34
2023-05-23T10:20:33.462Z,32.72
2023-05-23T10:23:02.746Z,32.93
2023-05-23T10:25:30.442Z,33.02
2023-05-23T10:28:02.382Z,33.58
2023-05-23T10:30:30.892Z,34.27
2023-05-23T10:32:59.780Z,34.38
2023-05-23T10:36:30.817Z,35.17
2023-05-23T10:39:15.432Z,34.44
2023-05-23T10:42:21.673Z,34.13
2023-05-23T10:44:48.916Z,33.94
2023-05-23T10:47:28.754Z,33.00
2023-05-23T10:49:56.734Z,32.12
2023-05-23T10:52:28.007Z,31.84
2023-05-23T10:54:58.376Z,32.16
2023-05-23T10:57:28.811Z,32.17
2023-05-23T10:59:56.542Z,32.74
2023-05-23T11:02:29.210Z,33.66
2023-05-23T11:05:22.907Z,33.97
2023-05-23T11:08:14.304Z,33.78
2023-05-23T11:11:04.708Z,32.87
2023-05-23T11:13:55.939Z,33.28
2023-05-23T11:16:41.065Z,32.23
2023-05-23T11:19:26.079Z,31.37
2023-05-23T11:22:03.689Z,30.76
2023-05-23T11:24:55.580Z,30.48
2023-05-23T11:27:34.800Z,30.69
2023-05-23T11:30:11.026Z,31.50
2023-05-23T11:32:38.556Z,31.96
2023-05-23T11:35:11.542Z,31.50
2023-05-23T11:37:40.200Z,30.09
2023-05-23T11:40:38.545Z,29.11
2023-05-23T11:43:13.914Z,28.19
2023-05-23T11:45:42.867Z,26.86
2023-05-23T11:48:18.125Z,26.74
2023-05-23T11:50:54.470Z,26.97
2023-05-23T11:53:25.651Z,26.58
2023-05-23T11:56:00.357Z,26.61
2023-05-23T11:58:38.428Z,26.52
2023-05-23T12:01:11.484Z,27.09
2023-05-23T12:03:51.264Z,24.87
2023-05-23T12:06:24.808Z,25.52
2023-05-23T12:08:52.889Z,25.78
2023-05-23T12:11:20.631Z,25.32
2023-05-23T12:13:47.958Z,26.06
2023-05-23T12:16:18.549Z,28.15
2023-05-23T12:18:46.087Z,27.98
2023-05-23T12:21:13.235Z,27.82
2023-05-23T12:23:42.113Z,27.36
2023-05-23T12:26:12.391Z,26.85
2023-05-23T12:28:45.479Z,26.55
2023-05-23T12:31:22.378Z,26.19
2023-05-23T12:33:53.190Z,26.57
2023-05-23T12:36:33.121Z,25.64
2023-05-23T12:39:05.831Z,22.92
2023-05-23T12:41:34.034Z,21.60
2023-05-23T12:44:03.076Z,22.10
2023-05-23T12:46:30.445Z,24.29
2023-05-23T12:48:57.790Z,25.39
2023-05-23T12:51:25.106Z,24.05
2023-05-23T12:53:54.816Z,23.30
2023-05-23T12:56:26.016Z,22.56
2023-05-23T12:58:54.313Z,22.29
2023-05-23T13:01:21.998Z,23.53
2023-05-23T13:03:50.726Z,21.98
2023-05-23T13:06:18.460Z,22.98
2023-05-23T13:08:46.124Z,24.02
2023-05-23T13:11:13.820Z,25.25
2023-05-23T13:13:41.794Z,24.89
2023-05-23T13:16:09.678Z,23.88
2023-05-23T13:18:37.525Z,23.69
2023-05-23T13:21:05.475Z,23.42
2023-05-23T13:23:33.574Z,23.04
2023-05-23T13:26:02.786Z,23.90
2023-05-23T13:28:30.051Z,23.80
2023-05-23T13:30:57.348Z,24.95
2023-05-23T13:33:24.782Z,24.63
2023-05-23T13:35:52.622Z,25.56
2023-05-23T13:38:21.143Z,26.82
2023-05-23T13:40:51.124Z,26.99
2023-05-23T13:43:19.034Z,26.50
2023-05-23T13:45:47.442Z,27.40
2023-05-23T13:48:14.920Z,27.82
2023-05-23T13:50:43.664Z,27.41
2023-05-23T13:53:15.285Z,27.43
2023-05-23T13:55:45.365Z,27.71
2023-05-23T13:58:13.079Z,28.60
2023-05-23T14:00:41.264Z,28.56
2023-05-23T14:03:09.920Z,28.32
2023-05-23T14:05:38.923Z,28.40
2023-05-23T14:08:06.865Z,30.27
2023-05-23T14:10:34.514Z,29.83
2023-05-23T14:13:02.080Z,29.17
2023-05-23T14:15:29.835Z,28.48
2023-05-23T14:17:58.573Z,28.45
2023-05-23T14:20:26.334Z,29.23
2023-05-23T14:22:54.162Z,28.75
2023-05-23T14:25:23.242Z,28.60
2023-05-23T14:27:50.713Z,28.28
2023-05-23T14:30:18.312Z,28.83
2023-05-23T14:32:45.728Z,30.11
2023-05-23T14:35:13.252Z,28.56
2023-05-23T14:37:40.798Z,29.64
2023-05-23T14:40:10.384Z,28.67
2023-05-23T14:42:37.904Z,29.82
2023-05-23T14:45:06.386Z,30.95
2023-05-23T14:47:33.969Z,30.52
2023-05-23T14:50:01.514Z,30.59
2023-05-23T14:52:29.785Z,30.62
2023-05-23T14:54:57.322Z,30.65
2023-05-23T14:57:24.677Z,30.24
2023-05-23T14:59:51.863Z,29.92
2023-05-23T15:02:19.925Z,30.23
2023-05-23T15:04:48.617Z,29.59
2023-05-23T15:07:18.359Z,29.42
2023-05-23T15:09:47.692Z,28.80
2023-05-23T15:12:15.505Z,29.34
2023-05-23T15:14:43.595Z,29.51
2023-05-23T15:17:13.052Z,29.47
2023-05-23T15:19:43.220Z,28.69
2023-05-23T15:22:29.856Z,29.42
2023-05-23T15:25:00.725Z,28.97
2023-05-23T15:27:28.015Z,28.70
2023-05-23T15:29:55.314Z,28.91
2023-05-23T15:32:22.721Z,28.67
2023-05-23T15:34:50.436Z,28.05
2023-05-23T15:37:18.258Z,28.25
2023-05-23T15:39:45.684Z,29.09
2023-05-23T15:42:12.884Z,29.88
2023-05-23T15:44:40.312Z,29.93
2023-05-23T15:47:07.566Z,29.85
2023-05-23T15:49:35.891Z,29.73
2023-05-23T15:52:03.250Z,29.62
2023-05-23T15:54:30.602Z,29.29
2023-05-23T15:56:57.984Z,30.73
2023-05-23T15:59:25.326Z,30.79
2023-05-23T16:01:52.685Z,30.72
2023-05-23T16:04:20.107Z,31.38
2023-05-23T16:06:47.500Z,31.88
2023-05-23T16:09:14.895Z,32.43
2023-05-23T16:11:42.835Z,32.11
2023-05-23T16:14:10.119Z,32.09
2023-05-23T16:16:38.359Z,32.34
2023-05-23T16:19:07.784Z,32.81
2023-05-23T16:21:36.571Z,32.33
2023-05-23T16:24:05.809Z,32.24
2023-05-23T16:26:33.329Z,32.20
2023-05-23T16:29:00.729Z,31.76
2023-05-23T16:31:29.480Z,31.80
2023-05-23T16:33:56.862Z,31.76
2023-05-23T16:36:24.137Z,31.49
2023-05-23T16:38:52.972Z,31.25
2023-05-23T16:41:21.980Z,30.96
2023-05-23T16:43:49.258Z,31.33
2023-05-23T16:46:19.000Z,31.08
2023-05-23T16:48:48.685Z,30.91
2023-05-23T16:51:16.629Z,31.31
2023-05-23T16:53:44.331Z,30.69
2023-05-23T16:56:11.700Z,31.03
2023-05-23T16:58:39.118Z,31.67
2023-05-23T17:01:08.091Z,32.16
2023-05-23T17:03:35.656Z,32.02
2023-05-23T17:06:03.440Z,31.80
2023-05-23T17:08:31.084Z,32.42
2023-05-23T17:10:58.458Z,32.84
2023-05-23T17:13:26.204Z,33.15
2023-05-23T17:15:53.536Z,33.52
2023-05-23T17:18:20.912Z,33.87
2023-05-23T17:20:48.553Z,33.20
2023-05-23T17:23:19.011Z,33.30
2023-05-23T17:25:46.462Z,32.95
2023-05-23T17:28:13.775Z,33.43
2023-05-23T17:30:41.128Z,33.60
2023-05-23T17:33:12.456Z,33.72
2023-05-23T17:35:41.767Z,34.51
2023-05-23T17:38:09.211Z,35.17
2023-05-23T17:40:36.501Z,36.20
2023-05-23T17:43:03.888Z,36.62
2023-05-23T17:45:31.498Z,36.80
2023-05-23T17:48:03.329Z,37.64
2023-05-23T17:50:31.028Z,37.58
2023-05-23T17:52:59.126Z,37.20
2023-05-23T17:55:26.721Z,36.95
2023-05-23T17:57:53.941Z,37.12
2023-05-23T18:00:21.733Z,36.92
2023-05-23T18:02:51.108Z,36.93
2023-05-23T18:05:20.731Z,37.92
2023-05-23T18:07:47.963Z,38.84
2023-05-23T18:10:15.537Z,39.06
2023-05-23T18:12:42.944Z,39.52
2023-05-23T18:15:11.116Z,39.53
2023-05-23T18:17:38.476Z,39.42
2023-05-23T18:20:07.494Z,39.26
2023-05-23T18:22:34.921Z,39.39
2023-05-23T18:25:02.300Z,39.69
2023-05-23T18:27:31.400Z,39.46
2023-05-23T18:29:58.869Z,39.85
2023-05-23T18:32:26.286Z,40.23
2023-05-23T18:34:53.571Z,40.09
2023-05-23T18:37:20.843Z,40.41
2023-05-23T18:39:48.220Z,40.26
2023-05-23T18:42:15.525Z,41.19
2023-05-23T18:44:43.083Z,41.24
2023-05-23T18:47:10.714Z,41.49
2023-05-23T18:49:38.744Z,41.81
2023-05-23T18:52:06.822Z,42.21
2023-05-23T18:54:34.373Z,41.93
2023-05-23T18:57:03.251Z,41.39
2023-05-23T18:59:30.891Z,41.00
2023-05-23T19:02:00.309Z,40.88
2023-05-23T19:04:27.753Z,41.00
2023-05-23T19:06:55.238Z,41.47
2023-05-23T19:09:22.632Z,41.79
2023-05-23T19:11:50.178Z,41.46
2023-05-23T19:14:18.024Z,41.57
2023-05-23T19:16:46.454Z,41.44
2023-05-23T19:19:14.749Z,41.94
2023-05-23T19:21:42.763Z,41.98
2023-05-23T19:24:10.467Z,42.48
2023-05-23T19:26:40.333Z,41.98
2023-05-23T19:29:08.113Z,41.98
2023-05-23T19:31:38.410Z,41.77
2023-05-23T19:34:10.310Z,42.27
2023-05-23T19:36:39.174Z,43.16
2023-05-23T19:39:07.586Z,42.97
2023-05-23T19:41:35.392Z,42.90
2023-05-23T19:44:03.356Z,42.77
2023-05-23T19:46:35.256Z,43.19
2023-05-23T19:49:03.889Z,43.07
2023-05-23T19:51:31.847Z,42.92
2023-05-23T19:54:04.874Z,43.39
2023-05-23T19:56:34.648Z,44.20
2023-05-23T19:59:10.944Z,43.57
2023-05-23T20:01:41.905Z,43.12
2023-05-23T20:04:12.869Z,43.36
2023-05-23T20:06:40.903Z,42.71
2023-05-23T20:09:11.882Z,42.66
2023-05-23T20:11:39.795Z,43.08
2023-05-23T20:14:16.833Z,42.92
2023-05-23T20:16:49.296Z,43.67
2023-05-23T20:19:17.158Z,43.10
2023-05-23T20:21:45.862Z,42.89
2023-05-23T20:24:18.086Z,43.10
2023-05-23T20:26:51.279Z,43.34
2023-05-23T20:29:24.110Z,44.65
2023-05-23T20:31:52.788Z,43.95
2023-05-23T20:34:27.128Z,43.86
2023-05-23T20:36:55.037Z,43.90
2023-05-23T20:39:28.177Z,44.09
2023-05-23T20:41:56.276Z,43.96
2023-05-23T20:44:24.551Z,44.12
2023-05-23T20:46:52.456Z,43.89
2023-05-23T20:49:28.097Z,44.22
2023-05-23T20:52:01.610Z,45.02
2023-05-23T20:54:30.328Z,45.05
2023-05-23T20:56:59.000Z,44.84
2023-05-23T20:59:26.965Z,44.68
2023-05-23T21:01:55.106Z,44.71
2023-05-23T21:04:23.274Z,45.37
2023-05-23T21:06:52.624Z,45.61
2023-05-23T21:09:23.576Z,45.35
2023-05-23T21:11:51.414Z,45.82
2023-05-23T21:14:21.457Z,45.53
2023-05-23T21:16:49.035Z,45.36
2023-05-23T21:19:16.897Z,45.44
2023-05-23T21:21:44.777Z,45.55
2023-05-23T21:24:14.444Z,45.87
2023-05-23T21:26:42.416Z,45.70
2023-05-23T21:29:10.193Z,45.67
2023-05-23T21:31:43.427Z,45.21
2023-05-23T21:34:23.072Z,46.13
2023-05-23T21:36:53.625Z,46.20
2023-05-23T21:39:21.284Z,46.44
2023-05-23T21:41:48.939Z,46.34
2023-05-23T21:44:17.776Z,46.33
2023-05-23T21:46:45.897Z,47.74
2023-05-23T21:49:13.690Z,46.74
2023-05-23T21:51:42.393Z,47.42
2023-05-23T21:54:10.906Z,47.17
2023-05-23T21:56:38.915Z,46.69
2023-05-23T21:59:07.201Z,46.82
2023-05-23T22:01:36.166Z,47.10
2023-05-23T22:04:06.827Z,48.16
2023-05-23T22:06:34.639Z,47.94
2023-05-23T22:09:05.550Z,47.23
2023-05-23T22:11:34.337Z,48.18
2023-05-23T22:14:04.802Z,47.77
2023-05-23T22:16:41.821Z,47.57
2023-05-23T22:19:10.356Z,47.86
2023-05-23T22:21:39.244Z,47.94
2023-05-23T22:24:07.754Z,47.64
2023-05-23T22:26:39.283Z,47.10
2023-05-23T22:29:07.254Z,47.33
2023-05-23T22:31:35.623Z,47.31
2023-05-23T22:34:06.469Z,48.32
2023-05-23T22:36:37.824Z,48.34
2023-05-23T22:39:06.028Z,48.35
2023-05-23T22:41:34.539Z,48.29
2023-05-23T22:44:04.791Z,48.07
2023-05-23T22:46:32.338Z,48.44
2023-05-23T22:49:00.667Z,48.22
2023-05-23T22:51:29.472Z,48.11
2023-05-23T22:53:57.501Z,47.93
2023-05-23T22:56:25.248Z,48.09
2023-05-23T22:58:53.028Z,47.81
2023-05-23T23:01:20.684Z,47.74
2023-05-23T23:03:54.131Z,48.18
2023-05-23T23:06:22.141Z,48.45
2023-05-23T23:08:50.002Z,48.30
2023-05-23T23:11:19.888Z,48.09
2023-05-23T23:13:47.381Z,47.80
2023-05-23T23:16:14.746Z,47.49
2023-05-23T23:18:42.161Z,48.02
2023-05-23T23:21:09.663Z,47.38
2023-05-23T23:23:38.341Z,47.70
2023-05-23T23:26:06.057Z,47.13
2023-05-23T23:28:33.760Z,47.56
2023-05-23T23:31:01.516Z,47.44
2023-05-23T23:33:28.880Z,47.18
2023-05-23T23:35:56.529Z,47.47
2023-05-23T23:38:23.922Z,48.09
2023-05-23T23:40:51.318Z,47.73
2023-05-23T23:43:18.878Z,47.59
2023-05-23T23:45:46.447Z,47.27
2023-05-23T23:48:14.888Z,46.79
2023-05-23T23:50:42.775Z,46.52
2023-05-23T23:53:12.648Z,46.42
2023-05-23T23:55:41.296Z,46.22
2023-05-23T23:58:09.013Z,46.01
